sensor_id;sensor_type;location;lat;lon;timestamp;P1;durP1;ratioP1;P2;durP2;ratioP2
7324;SDS011;3703;48.016;7.802;2022-07-05T00:01:19;3.70;;;3.10;;
7324;SDS011;3703;48.016;7.802;2022-07-05T00:04:07;3.10;;;2.80;;
7324;SDS011;3703;48.016;7.802;2022-07-05T00:06:54;3.37;;;3.07;;
7324;SDS011;3703;48.016;7.802;2022-07-05T00:09:59;3.77;;;3.10;;
7324;SDS011;3703;48.016;7.802;2022-07-05T00:12:49;3.60;;;3.30;;
7324;SDS011;3703;48.016;7.802;2022-07-05T00:15:37;3.00;;;2.70;;
7324;SDS011;3703;48.016;7.802;2022-07-05T00:18:25;3.23;;;2.97;;
7324;SDS011;3703;48.016;7.802;2022-07-05T00:21:12;6.40;;;3.13;;
7324;SDS011;3703;48.016;7.802;2022-07-05T00:24:00;5.37;;;3.30;;
7324;SDS011;3703;48.016;7.802;2022-07-05T00:26:48;3.43;;;2.60;;
7324;SDS011;3703;48.016;7.802;2022-07-05T00:29:37;2.77;;;2.50;;
7324;SDS011;3703;48.016;7.802;2022-07-05T00:32:25;3.60;;;3.07;;
7324;SDS011;3703;48.016;7.802;2022-07-05T00:35:12;2.73;;;2.50;;
7324;SDS011;3703;48.016;7.802;2022-07-05T00:38:00;2.70;;;2.50;;
7324;SDS011;3703;48.016;7.802;2022-07-05T00:40:48;3.37;;;2.50;;
7324;SDS011;3703;48.016;7.802;2022-07-05T00:43:36;3.77;;;2.80;;
7324;SDS011;3703;48.016;7.802;2022-07-05T00:46:25;2.53;;;2.30;;
7324;SDS011;3703;48.016;7.802;2022-07-05T00:49:13;2.83;;;2.63;;
7324;SDS011;3703;48.016;7.802;2022-07-05T00:52:01;3.33;;;2.60;;
7324;SDS011;3703;48.016;7.802;2022-07-05T00:54:50;3.87;;;2.70;;
7324;SDS011;3703;48.016;7.802;2022-07-05T00:57:39;3.30;;;3.00;;
7324;SDS011;3703;48.016;7.802;2022-07-05T01:00:26;4.90;;;3.17;;
7324;SDS011;3703;48.016;7.802;2022-07-05T01:03:16;3.80;;;2.80;;
7324;SDS011;3703;48.016;7.802;2022-07-05T01:06:05;3.27;;;2.70;;
7324;SDS011;3703;48.016;7.802;2022-07-05T01:08:54;2.73;;;2.53;;
7324;SDS011;3703;48.016;7.802;2022-07-05T01:11:42;3.47;;;2.57;;
7324;SDS011;3703;48.016;7.802;2022-07-05T01:14:31;3.77;;;2.33;;
7324;SDS011;3703;48.016;7.802;2022-07-05T01:17:19;2.70;;;2.50;;
7324;SDS011;3703;48.016;7.802;2022-07-05T01:20:09;2.97;;;2.67;;
7324;SDS011;3703;48.016;7.802;2022-07-05T01:22:58;2.93;;;2.63;;
7324;SDS011;3703;48.016;7.802;2022-07-05T01:25:47;3.93;;;2.80;;
7324;SDS011;3703;48.016;7.802;2022-07-05T01:28:38;2.97;;;2.60;;
7324;SDS011;3703;48.016;7.802;2022-07-05T01:31:26;2.90;;;2.60;;
7324;SDS011;3703;48.016;7.802;2022-07-05T01:34:13;2.70;;;2.50;;
7324;SDS011;3703;48.016;7.802;2022-07-05T01:37:01;2.90;;;2.60;;
7324;SDS011;3703;48.016;7.802;2022-07-05T01:39:52;3.03;;;2.53;;
7324;SDS011;3703;48.016;7.802;2022-07-05T01:42:40;3.27;;;2.70;;
7324;SDS011;3703;48.016;7.802;2022-07-05T01:45:28;2.60;;;2.40;;
7324;SDS011;3703;48.016;7.802;2022-07-05T01:48:28;3.47;;;2.50;;
7324;SDS011;3703;48.016;7.802;2022-07-05T01:51:20;2.90;;;2.60;;
7324;SDS011;3703;48.016;7.802;2022-07-05T01:54:13;4.80;;;2.77;;
7324;SDS011;3703;48.016;7.802;2022-07-05T01:57:03;2.57;;;2.37;;
7324;SDS011;3703;48.016;7.802;2022-07-05T01:59:51;2.87;;;2.67;;
7324;SDS011;3703;48.016;7.802;2022-07-05T02:02:39;3.67;;;2.83;;
7324;SDS011;3703;48.016;7.802;2022-07-05T02:05:28;2.60;;;2.40;;
7324;SDS011;3703;48.016;7.802;2022-07-05T02:08:17;2.80;;;2.60;;
7324;SDS011;3703;48.016;7.802;2022-07-05T02:11:06;2.90;;;2.50;;
7324;SDS011;3703;48.016;7.802;2022-07-05T02:13:55;3.53;;;2.70;;
7324;SDS011;3703;48.016;7.802;2022-07-05T02:16:44;3.83;;;2.73;;
7324;SDS011;3703;48.016;7.802;2022-07-05T02:19:31;4.03;;;2.90;;
7324;SDS011;3703;48.016;7.802;2022-07-05T02:22:21;3.77;;;3.00;;
7324;SDS011;3703;48.016;7.802;2022-07-05T02:25:09;3.57;;;2.90;;
7324;SDS011;3703;48.016;7.802;2022-07-05T02:27:57;3.17;;;2.57;;
7324;SDS011;3703;48.016;7.802;2022-07-05T02:30:46;2.83;;;2.63;;
7324;SDS011;3703;48.016;7.802;2022-07-05T02:33:34;3.10;;;2.80;;
7324;SDS011;3703;48.016;7.802;2022-07-05T02:36:22;2.73;;;2.53;;
7324;SDS011;3703;48.016;7.802;2022-07-05T02:39:10;3.20;;;2.83;;
7324;SDS011;3703;48.016;7.802;2022-07-05T02:41:58;3.03;;;2.50;;
7324;SDS011;3703;48.016;7.802;2022-07-05T02:44:46;2.80;;;2.57;;
7324;SDS011;3703;48.016;7.802;2022-07-05T02:47:35;3.10;;;2.80;;
7324;SDS011;3703;48.016;7.802;2022-07-05T02:50:23;3.13;;;2.77;;
7324;SDS011;3703;48.016;7.802;2022-07-05T02:53:11;3.70;;;2.70;;
7324;SDS011;3703;48.016;7.802;2022-07-05T02:55:58;3.23;;;2.70;;
7324;SDS011;3703;48.016;7.802;2022-07-05T02:58:46;3.23;;;2.80;;
7324;SDS011;3703;48.016;7.802;2022-07-05T03:01:34;2.97;;;2.73;;
7324;SDS011;3703;48.016;7.802;2022-07-05T03:04:23;2.90;;;2.70;;
7324;SDS011;3703;48.016;7.802;2022-07-05T03:07:11;3.00;;;2.70;;
7324;SDS011;3703;48.016;7.802;2022-07-05T03:09:59;3.17;;;2.87;;
7324;SDS011;3703;48.016;7.802;2022-07-05T03:12:47;3.87;;;3.00;;
7324;SDS011;3703;48.016;7.802;2022-07-05T03:15:34;3.23;;;2.90;;
7324;SDS011;3703;48.016;7.802;2022-07-05T03:18:22;3.20;;;2.80;;
7324;SDS011;3703;48.016;7.802;2022-07-05T03:21:11;3.03;;;2.73;;
7324;SDS011;3703;48.016;7.802;2022-07-05T03:23:59;4.77;;;3.07;;
7324;SDS011;3703;48.016;7.802;2022-07-05T03:26:46;3.30;;;3.00;;
7324;SDS011;3703;48.016;7.802;2022-07-05T03:29:34;2.93;;;2.63;;
7324;SDS011;3703;48.016;7.802;2022-07-05T03:32:22;3.20;;;2.90;;
7324;SDS011;3703;48.016;7.802;2022-07-05T03:35:10;4.20;;;3.20;;
7324;SDS011;3703;48.016;7.802;2022-07-05T03:37:59;3.73;;;2.97;;
7324;SDS011;3703;48.016;7.802;2022-07-05T03:40:47;3.50;;;3.10;;
7324;SDS011;3703;48.016;7.802;2022-07-05T03:43:34;3.10;;;2.80;;
7324;SDS011;3703;48.016;7.802;2022-07-05T03:46:22;3.10;;;2.80;;
7324;SDS011;3703;48.016;7.802;2022-07-05T03:49:10;3.67;;;3.20;;
7324;SDS011;3703;48.016;7.802;2022-07-05T03:51:58;2.97;;;2.67;;
7324;SDS011;3703;48.016;7.802;2022-07-05T03:54:47;5.00;;;3.37;;
7324;SDS011;3703;48.016;7.802;2022-07-05T03:57:35;4.93;;;3.00;;
7324;SDS011;3703;48.016;7.802;2022-07-05T04:00:23;3.47;;;3.17;;
7324;SDS011;3703;48.016;7.802;2022-07-05T04:03:10;3.77;;;3.17;;
7324;SDS011;3703;48.016;7.802;2022-07-05T04:05:58;3.67;;;2.90;;
7324;SDS011;3703;48.016;7.802;2022-07-05T04:08:46;5.30;;;3.20;;
7324;SDS011;3703;48.016;7.802;2022-07-05T04:11:35;3.20;;;2.90;;
7324;SDS011;3703;48.016;7.802;2022-07-05T04:14:23;3.57;;;3.13;;
7324;SDS011;3703;48.016;7.802;2022-07-05T04:17:10;3.57;;;3.27;;
7324;SDS011;3703;48.016;7.802;2022-07-05T04:19:58;4.33;;;2.97;;
7324;SDS011;3703;48.016;7.802;2022-07-05T04:22:46;4.67;;;3.23;;
7324;SDS011;3703;48.016;7.802;2022-07-05T04:25:33;3.57;;;2.70;;
7324;SDS011;3703;48.016;7.802;2022-07-05T04:28:22;3.50;;;3.20;;
7324;SDS011;3703;48.016;7.802;2022-07-05T04:31:10;5.47;;;3.43;;
7324;SDS011;3703;48.016;7.802;2022-07-05T04:33:58;4.03;;;3.10;;
7324;SDS011;3703;48.016;7.802;2022-07-05T04:36:46;4.67;;;4.13;;
7324;SDS011;3703;48.016;7.802;2022-07-05T04:39:34;3.57;;;3.27;;
7324;SDS011;3703;48.016;7.802;2022-07-05T04:42:22;3.67;;;2.90;;
7324;SDS011;3703;48.016;7.802;2022-07-05T04:45:11;3.63;;;3.33;;
7324;SDS011;3703;48.016;7.802;2022-07-05T04:47:59;3.23;;;2.93;;
7324;SDS011;3703;48.016;7.802;2022-07-05T04:50:47;3.90;;;3.53;;
7324;SDS011;3703;48.016;7.802;2022-07-05T04:53:35;4.07;;;3.20;;
7324;SDS011;3703;48.016;7.802;2022-07-05T04:56:23;3.30;;;3.00;;
7324;SDS011;3703;48.016;7.802;2022-07-05T04:59:10;3.60;;;2.93;;
7324;SDS011;3703;48.016;7.802;2022-07-05T05:01:59;4.30;;;3.10;;
7324;SDS011;3703;48.016;7.802;2022-07-05T05:04:47;4.00;;;3.60;;
7324;SDS011;3703;48.016;7.802;2022-07-05T05:07:35;4.40;;;3.73;;
7324;SDS011;3703;48.016;7.802;2022-07-05T05:10:25;3.50;;;3.20;;
7324;SDS011;3703;48.016;7.802;2022-07-05T05:13:12;3.67;;;3.37;;
7324;SDS011;3703;48.016;7.802;2022-07-05T05:16:00;4.30;;;3.17;;
7324;SDS011;3703;48.016;7.802;2022-07-05T05:18:50;4.00;;;2.77;;
7324;SDS011;3703;48.016;7.802;2022-07-05T05:21:37;3.67;;;3.10;;
7324;SDS011;3703;48.016;7.802;2022-07-05T05:24:25;3.40;;;3.10;;
7324;SDS011;3703;48.016;7.802;2022-07-05T05:27:13;3.30;;;3.00;;
7324;SDS011;3703;48.016;7.802;2022-07-05T05:30:01;5.50;;;3.20;;
7324;SDS011;3703;48.016;7.802;2022-07-05T05:32:49;3.40;;;2.97;;
7324;SDS011;3703;48.016;7.802;2022-07-05T05:35:38;3.40;;;2.80;;
7324;SDS011;3703;48.016;7.802;2022-07-05T05:38:26;4.27;;;2.87;;
7324;SDS011;3703;48.016;7.802;2022-07-05T05:41:14;4.37;;;3.27;;
7324;SDS011;3703;48.016;7.802;2022-07-05T05:44:01;6.97;;;3.43;;
7324;SDS011;3703;48.016;7.802;2022-07-05T05:46:50;3.97;;;2.97;;
7324;SDS011;3703;48.016;7.802;2022-07-05T05:49:38;3.63;;;3.13;;
7324;SDS011;3703;48.016;7.802;2022-07-05T05:52:27;5.40;;;3.13;;
7324;SDS011;3703;48.016;7.802;2022-07-05T05:55:15;3.63;;;2.90;;
7324;SDS011;3703;48.016;7.802;2022-07-05T05:58:10;3.30;;;2.50;;
7324;SDS011;3703;48.016;7.802;2022-07-05T06:00:59;3.43;;;2.70;;
7324;SDS011;3703;48.016;7.802;2022-07-05T06:03:47;3.33;;;2.53;;
7324;SDS011;3703;48.016;7.802;2022-07-05T06:06:35;2.30;;;2.10;;
7324;SDS011;3703;48.016;7.802;2022-07-05T06:09:24;2.90;;;2.30;;
7324;SDS011;3703;48.016;7.802;2022-07-05T06:12:12;2.53;;;2.23;;
7324;SDS011;3703;48.016;7.802;2022-07-05T06:15:00;4.43;;;2.10;;
7324;SDS011;3703;48.016;7.802;2022-07-05T06:17:48;5.77;;;2.40;;
7324;SDS011;3703;48.016;7.802;2022-07-05T06:20:37;3.07;;;2.00;;
7324;SDS011;3703;48.016;7.802;2022-07-05T06:23:25;3.47;;;2.10;;
7324;SDS011;3703;48.016;7.802;2022-07-05T06:26:15;2.20;;;2.00;;
7324;SDS011;3703;48.016;7.802;2022-07-05T06:29:02;2.10;;;1.87;;
7324;SDS011;3703;48.016;7.802;2022-07-05T06:31:50;1.93;;;1.63;;
7324;SDS011;3703;48.016;7.802;2022-07-05T06:34:38;2.67;;;2.00;;
7324;SDS011;3703;48.016;7.802;2022-07-05T06:37:25;2.47;;;1.90;;
7324;SDS011;3703;48.016;7.802;2022-07-05T06:40:13;1.90;;;1.80;;
7324;SDS011;3703;48.016;7.802;2022-07-05T06:43:07;1.87;;;1.60;;
7324;SDS011;3703;48.016;7.802;2022-07-05T06:45:57;2.00;;;1.70;;
7324;SDS011;3703;48.016;7.802;2022-07-05T06:48:45;1.80;;;1.37;;
7324;SDS011;3703;48.016;7.802;2022-07-05T06:51:33;2.07;;;1.87;;
7324;SDS011;3703;48.016;7.802;2022-07-05T06:54:20;3.50;;;1.90;;
7324;SDS011;3703;48.016;7.802;2022-07-05T06:57:08;2.83;;;2.20;;
7324;SDS011;3703;48.016;7.802;2022-07-05T06:59:57;2.20;;;1.70;;
7324;SDS011;3703;48.016;7.802;2022-07-05T07:02:47;2.00;;;1.80;;
7324;SDS011;3703;48.016;7.802;2022-07-05T07:05:34;2.80;;;1.80;;
7324;SDS011;3703;48.016;7.802;2022-07-05T07:08:22;2.43;;;1.80;;
7324;SDS011;3703;48.016;7.802;2022-07-05T07:11:27;2.57;;;1.53;;
7324;SDS011;3703;48.016;7.802;2022-07-05T07:14:15;2.23;;;1.80;;
7324;SDS011;3703;48.016;7.802;2022-07-05T07:17:05;2.77;;;1.87;;
7324;SDS011;3703;48.016;7.802;2022-07-05T07:19:53;1.60;;;1.50;;
7324;SDS011;3703;48.016;7.802;2022-07-05T07:22:40;2.53;;;1.70;;
7324;SDS011;3703;48.016;7.802;2022-07-05T07:25:28;3.83;;;1.63;;
7324;SDS011;3703;48.016;7.802;2022-07-05T07:28:16;5.70;;;1.80;;
7324;SDS011;3703;48.016;7.802;2022-07-05T07:31:04;2.10;;;1.90;;
7324;SDS011;3703;48.016;7.802;2022-07-05T07:33:53;3.60;;;1.67;;
7324;SDS011;3703;48.016;7.802;2022-07-05T07:36:41;1.87;;;1.77;;
7324;SDS011;3703;48.016;7.802;2022-07-05T07:39:29;2.97;;;1.63;;
7324;SDS011;3703;48.016;7.802;2022-07-05T07:42:17;2.37;;;1.70;;
7324;SDS011;3703;48.016;7.802;2022-07-05T07:45:05;3.03;;;1.40;;
7324;SDS011;3703;48.016;7.802;2022-07-05T07:47:54;4.27;;;1.97;;
7324;SDS011;3703;48.016;7.802;2022-07-05T07:50:43;1.73;;;1.63;;
7324;SDS011;3703;48.016;7.802;2022-07-05T07:53:31;4.07;;;1.80;;
7324;SDS011;3703;48.016;7.802;2022-07-05T07:56:18;2.63;;;1.80;;
7324;SDS011;3703;48.016;7.802;2022-07-05T07:59:06;1.97;;;1.57;;
7324;SDS011;3703;48.016;7.802;2022-07-05T08:01:54;3.53;;;1.60;;
7324;SDS011;3703;48.016;7.802;2022-07-05T08:04:42;2.17;;;1.90;;
7324;SDS011;3703;48.016;7.802;2022-07-05T08:07:31;1.70;;;1.60;;
7324;SDS011;3703;48.016;7.802;2022-07-05T08:10:18;2.17;;;1.80;;
7324;SDS011;3703;48.016;7.802;2022-07-05T08:13:06;2.03;;;1.80;;
7324;SDS011;3703;48.016;7.802;2022-07-05T08:15:54;2.77;;;2.07;;
7324;SDS011;3703;48.016;7.802;2022-07-05T08:18:42;1.90;;;1.70;;
7324;SDS011;3703;48.016;7.802;2022-07-05T08:21:47;2.07;;;1.63;;
7324;SDS011;3703;48.016;7.802;2022-07-05T08:24:36;1.73;;;1.63;;
7324;SDS011;3703;48.016;7.802;2022-07-05T08:27:26;1.50;;;1.40;;
7324;SDS011;3703;48.016;7.802;2022-07-05T08:30:13;3.93;;;1.93;;
7324;SDS011;3703;48.016;7.802;2022-07-05T08:33:02;2.17;;;1.40;;
7324;SDS011;3703;48.016;7.802;2022-07-05T08:35:49;4.07;;;1.87;;
7324;SDS011;3703;48.016;7.802;2022-07-05T08:38:38;2.13;;;1.60;;
7324;SDS011;3703;48.016;7.802;2022-07-05T08:41:27;2.70;;;1.77;;
7324;SDS011;3703;48.016;7.802;2022-07-05T08:44:17;4.23;;;1.73;;
7324;SDS011;3703;48.016;7.802;2022-07-05T08:47:08;1.90;;;1.80;;
7324;SDS011;3703;48.016;7.802;2022-07-05T08:49:57;3.23;;;2.10;;
7324;SDS011;3703;48.016;7.802;2022-07-05T08:52:46;4.07;;;1.50;;
7324;SDS011;3703;48.016;7.802;2022-07-05T08:55:35;2.10;;;1.77;;
7324;SDS011;3703;48.016;7.802;2022-07-05T08:58:24;2.80;;;1.93;;
7324;SDS011;3703;48.016;7.802;2022-07-05T09:01:12;1.60;;;1.50;;
7324;SDS011;3703;48.016;7.802;2022-07-05T09:04:00;2.13;;;1.80;;
7324;SDS011;3703;48.016;7.802;2022-07-05T09:06:51;2.67;;;2.00;;
7324;SDS011;3703;48.016;7.802;2022-07-05T09:09:42;2.00;;;1.90;;
7324;SDS011;3703;48.016;7.802;2022-07-05T09:12:34;3.83;;;1.60;;
7324;SDS011;3703;48.016;7.802;2022-07-05T09:15:24;2.33;;;1.90;;
7324;SDS011;3703;48.016;7.802;2022-07-05T09:18:12;3.83;;;1.60;;
7324;SDS011;3703;48.016;7.802;2022-07-05T09:21:10;1.90;;;1.80;;
7324;SDS011;3703;48.016;7.802;2022-07-05T09:24:01;3.23;;;1.90;;
7324;SDS011;3703;48.016;7.802;2022-07-05T09:26:50;1.77;;;1.67;;
7324;SDS011;3703;48.016;7.802;2022-07-05T09:29:38;3.13;;;1.80;;
7324;SDS011;3703;48.016;7.802;2022-07-05T09:32:27;1.90;;;1.80;;
7324;SDS011;3703;48.016;7.802;2022-07-05T09:35:19;1.90;;;1.80;;
7324;SDS011;3703;48.016;7.802;2022-07-05T09:38:15;2.40;;;1.77;;
7324;SDS011;3703;48.016;7.802;2022-07-05T09:41:05;1.70;;;1.60;;
7324;SDS011;3703;48.016;7.802;2022-07-05T09:43:58;4.37;;;1.73;;
7324;SDS011;3703;48.016;7.802;2022-07-05T09:46:46;2.40;;;2.00;;
7324;SDS011;3703;48.016;7.802;2022-07-05T09:49:35;1.93;;;1.80;;
7324;SDS011;3703;48.016;7.802;2022-07-05T09:52:28;2.40;;;2.20;;
7324;SDS011;3703;48.016;7.802;2022-07-05T09:55:17;2.30;;;1.80;;
7324;SDS011;3703;48.016;7.802;2022-07-05T09:58:05;2.53;;;1.63;;
7324;SDS011;3703;48.016;7.802;2022-07-05T10:00:52;3.07;;;2.00;;
7324;SDS011;3703;48.016;7.802;2022-07-05T10:03:50;2.00;;;1.63;;
7324;SDS011;3703;48.016;7.802;2022-07-05T10:06:41;3.00;;;1.60;;
7324;SDS011;3703;48.016;7.802;2022-07-05T10:09:29;2.07;;;1.23;;
7324;SDS011;3703;48.016;7.802;2022-07-05T10:12:17;2.67;;;2.00;;
7324;SDS011;3703;48.016;7.802;2022-07-05T10:15:05;2.30;;;1.70;;
7324;SDS011;3703;48.016;7.802;2022-07-05T10:17:59;2.00;;;1.80;;
7324;SDS011;3703;48.016;7.802;2022-07-05T10:20:50;5.10;;;1.73;;
7324;SDS011;3703;48.016;7.802;2022-07-05T10:23:40;2.43;;;1.83;;
7324;SDS011;3703;48.016;7.802;2022-07-05T10:26:31;1.43;;;1.33;;
7324;SDS011;3703;48.016;7.802;2022-07-05T10:29:19;3.07;;;1.90;;
7324;SDS011;3703;48.016;7.802;2022-07-05T10:32:08;2.27;;;1.73;;
7324;SDS011;3703;48.016;7.802;2022-07-05T10:34:57;3.50;;;1.50;;
7324;SDS011;3703;48.016;7.802;2022-07-05T10:37:45;1.83;;;1.47;;
7324;SDS011;3703;48.016;7.802;2022-07-05T10:40:35;1.77;;;1.67;;
7324;SDS011;3703;48.016;7.802;2022-07-05T10:43:24;2.03;;;1.73;;
7324;SDS011;3703;48.016;7.802;2022-07-05T10:46:14;2.57;;;1.53;;
7324;SDS011;3703;48.016;7.802;2022-07-05T10:49:19;1.77;;;1.67;;
7324;SDS011;3703;48.016;7.802;2022-07-05T10:52:21;1.97;;;1.63;;
7324;SDS011;3703;48.016;7.802;2022-07-05T10:55:22;1.80;;;1.57;;
7324;SDS011;3703;48.016;7.802;2022-07-05T10:58:30;2.47;;;1.70;;
7324;SDS011;3703;48.016;7.802;2022-07-05T11:04:28;1.50;;;1.40;;
7324;SDS011;3703;48.016;7.802;2022-07-05T11:07:33;1.50;;;1.40;;
7324;SDS011;3703;48.016;7.802;2022-07-05T11:13:59;2.97;;;1.30;;
7324;SDS011;3703;48.016;7.802;2022-07-05T11:16:48;3.07;;;1.93;;
7324;SDS011;3703;48.016;7.802;2022-07-05T11:20:09;2.67;;;1.60;;
7324;SDS011;3703;48.016;7.802;2022-07-05T11:26:17;2.43;;;1.30;;
7324;SDS011;3703;48.016;7.802;2022-07-05T11:29:06;2.23;;;1.40;;
7324;SDS011;3703;48.016;7.802;2022-07-05T11:32:36;1.83;;;1.40;;
7324;SDS011;3703;48.016;7.802;2022-07-05T11:35:28;1.60;;;1.50;;
7324;SDS011;3703;48.016;7.802;2022-07-05T11:38:19;2.33;;;1.50;;
7324;SDS011;3703;48.016;7.802;2022-07-05T11:41:11;3.17;;;1.30;;
7324;SDS011;3703;48.016;7.802;2022-07-05T11:43:59;3.50;;;1.27;;
7324;SDS011;3703;48.016;7.802;2022-07-05T11:46:50;1.50;;;1.40;;
7324;SDS011;3703;48.016;7.802;2022-07-05T11:49:38;1.23;;;1.13;;
7324;SDS011;3703;48.016;7.802;2022-07-05T11:52:26;1.37;;;1.10;;
7324;SDS011;3703;48.016;7.802;2022-07-05T11:55:15;2.47;;;1.50;;
7324;SDS011;3703;48.016;7.802;2022-07-05T11:58:04;1.90;;;1.17;;
7324;SDS011;3703;48.016;7.802;2022-07-05T12:00:56;1.67;;;1.17;;
7324;SDS011;3703;48.016;7.802;2022-07-05T12:03:55;1.10;;;1.00;;
7324;SDS011;3703;48.016;7.802;2022-07-05T12:06:43;2.13;;;1.50;;
7324;SDS011;3703;48.016;7.802;2022-07-05T12:09:33;1.23;;;1.13;;
7324;SDS011;3703;48.016;7.802;2022-07-05T12:12:35;1.50;;;1.40;;
7324;SDS011;3703;48.016;7.802;2022-07-05T12:15:29;3.37;;;1.50;;
7324;SDS011;3703;48.016;7.802;2022-07-05T12:18:17;1.63;;;1.40;;
7324;SDS011;3703;48.016;7.802;2022-07-05T12:21:12;3.37;;;1.50;;
7324;SDS011;3703;48.016;7.802;2022-07-05T12:24:00;1.60;;;1.40;;
7324;SDS011;3703;48.016;7.802;2022-07-05T12:26:48;3.03;;;1.57;;
7324;SDS011;3703;48.016;7.802;2022-07-05T12:29:38;1.50;;;1.20;;
7324;SDS011;3703;48.016;7.802;2022-07-05T12:32:26;3.33;;;1.70;;
7324;SDS011;3703;48.016;7.802;2022-07-05T12:35:25;1.53;;;1.20;;
7324;SDS011;3703;48.016;7.802;2022-07-05T12:38:17;3.77;;;1.60;;
7324;SDS011;3703;48.016;7.802;2022-07-05T12:41:07;1.73;;;1.53;;
7324;SDS011;3703;48.016;7.802;2022-07-05T12:43:57;1.70;;;1.20;;
7324;SDS011;3703;48.016;7.802;2022-07-05T12:46:47;1.50;;;1.37;;
7324;SDS011;3703;48.016;7.802;2022-07-05T12:52:58;1.57;;;1.40;;
7324;SDS011;3703;48.016;7.802;2022-07-05T12:56:12;1.63;;;1.40;;
7324;SDS011;3703;48.016;7.802;2022-07-05T12:59:18;2.60;;;1.33;;
7324;SDS011;3703;48.016;7.802;2022-07-05T13:02:07;2.27;;;1.40;;
7324;SDS011;3703;48.016;7.802;2022-07-05T13:04:55;1.63;;;1.20;;
7324;SDS011;3703;48.016;7.802;2022-07-05T13:07:43;1.50;;;1.37;;
7324;SDS011;3703;48.016;7.802;2022-07-05T13:10:31;6.67;;;1.27;;
7324;SDS011;3703;48.016;7.802;2022-07-05T13:13:20;1.63;;;1.30;;
7324;SDS011;3703;48.016;7.802;2022-07-05T13:16:08;1.30;;;1.20;;
7324;SDS011;3703;48.016;7.802;2022-07-05T13:19:05;1.80;;;1.30;;
7324;SDS011;3703;48.016;7.802;2022-07-05T13:21:57;1.27;;;1.10;;
7324;SDS011;3703;48.016;7.802;2022-07-05T13:24:45;2.20;;;1.40;;
7324;SDS011;3703;48.016;7.802;2022-07-05T13:27:33;1.67;;;1.17;;
7324;SDS011;3703;48.016;7.802;2022-07-05T13:30:22;1.40;;;1.30;;
7324;SDS011;3703;48.016;7.802;2022-07-05T13:33:10;1.30;;;1.20;;
7324;SDS011;3703;48.016;7.802;2022-07-05T13:35:58;1.20;;;1.10;;
7324;SDS011;3703;48.016;7.802;2022-07-05T13:38:45;1.50;;;1.30;;
7324;SDS011;3703;48.016;7.802;2022-07-05T13:41:33;3.93;;;1.17;;
7324;SDS011;3703;48.016;7.802;2022-07-05T13:44:21;2.33;;;1.10;;
7324;SDS011;3703;48.016;7.802;2022-07-05T13:47:10;1.30;;;1.20;;
7324;SDS011;3703;48.016;7.802;2022-07-05T13:49:58;2.70;;;1.33;;
7324;SDS011;3703;48.016;7.802;2022-07-05T13:53:00;1.20;;;1.20;;
7324;SDS011;3703;48.016;7.802;2022-07-05T13:55:48;1.60;;;1.33;;
7324;SDS011;3703;48.016;7.802;2022-07-05T13:58:36;2.20;;;1.27;;
7324;SDS011;3703;48.016;7.802;2022-07-05T14:01:24;1.20;;;1.10;;
7324;SDS011;3703;48.016;7.802;2022-07-05T14:04:16;2.60;;;1.20;;
7324;SDS011;3703;48.016;7.802;2022-07-05T14:07:03;1.20;;;1.10;;
7324;SDS011;3703;48.016;7.802;2022-07-05T14:09:51;1.40;;;1.30;;
7324;SDS011;3703;48.016;7.802;2022-07-05T14:12:39;1.20;;;1.10;;
7324;SDS011;3703;48.016;7.802;2022-07-05T14:15:27;1.40;;;1.30;;
7324;SDS011;3703;48.016;7.802;2022-07-05T14:18:16;3.43;;;1.27;;
7324;SDS011;3703;48.016;7.802;2022-07-05T14:21:07;1.40;;;1.10;;
7324;SDS011;3703;48.016;7.802;2022-07-05T14:24:00;2.93;;;1.37;;
7324;SDS011;3703;48.016;7.802;2022-07-05T14:26:48;2.70;;;1.40;;
7324;SDS011;3703;48.016;7.802;2022-07-05T14:29:35;4.10;;;1.40;;
7324;SDS011;3703;48.016;7.802;2022-07-05T14:32:23;2.17;;;1.30;;
7324;SDS011;3703;48.016;7.802;2022-07-05T14:35:11;1.83;;;1.30;;
7324;SDS011;3703;48.016;7.802;2022-07-05T14:38:00;1.77;;;1.20;;
7324;SDS011;3703;48.016;7.802;2022-07-05T14:40:48;1.30;;;1.20;;
7324;SDS011;3703;48.016;7.802;2022-07-05T14:43:35;2.70;;;1.70;;
7324;SDS011;3703;48.016;7.802;2022-07-05T14:46:23;1.57;;;1.30;;
7324;SDS011;3703;48.016;7.802;2022-07-05T14:49:11;2.13;;;1.30;;
7324;SDS011;3703;48.016;7.802;2022-07-05T14:51:59;3.30;;;1.50;;
7324;SDS011;3703;48.016;7.802;2022-07-05T14:54:48;2.60;;;1.37;;
7324;SDS011;3703;48.016;7.802;2022-07-05T14:57:36;1.77;;;1.30;;
7324;SDS011;3703;48.016;7.802;2022-07-05T15:00:23;1.30;;;1.20;;
7324;SDS011;3703;48.016;7.802;2022-07-05T15:03:11;3.53;;;1.40;;
7324;SDS011;3703;48.016;7.802;2022-07-05T15:06:00;1.57;;;1.30;;
7324;SDS011;3703;48.016;7.802;2022-07-05T15:08:48;4.10;;;1.40;;
7324;SDS011;3703;48.016;7.802;2022-07-05T15:11:37;1.40;;;1.27;;
7324;SDS011;3703;48.016;7.802;2022-07-05T15:14:25;1.93;;;1.50;;
7324;SDS011;3703;48.016;7.802;2022-07-05T15:17:13;1.73;;;1.53;;
7324;SDS011;3703;48.016;7.802;2022-07-05T15:20:01;2.63;;;1.30;;
7324;SDS011;3703;48.016;7.802;2022-07-05T15:22:50;3.20;;;1.50;;
7324;SDS011;3703;48.016;7.802;2022-07-05T15:25:38;2.67;;;1.30;;
7324;SDS011;3703;48.016;7.802;2022-07-05T15:28:27;2.37;;;1.43;;
7324;SDS011;3703;48.016;7.802;2022-07-05T15:31:15;2.83;;;1.80;;
7324;SDS011;3703;48.016;7.802;2022-07-05T15:34:03;1.83;;;1.43;;
7324;SDS011;3703;48.016;7.802;2022-07-05T15:36:52;2.27;;;1.50;;
7324;SDS011;3703;48.016;7.802;2022-07-05T15:39:39;3.40;;;1.50;;
7324;SDS011;3703;48.016;7.802;2022-07-05T15:42:27;1.93;;;1.30;;
7324;SDS011;3703;48.016;7.802;2022-07-05T15:45:16;6.63;;;1.40;;
7324;SDS011;3703;48.016;7.802;2022-07-05T15:48:05;4.00;;;1.50;;
7324;SDS011;3703;48.016;7.802;2022-07-05T15:50:53;1.37;;;1.27;;
7324;SDS011;3703;48.016;7.802;2022-07-05T15:53:40;1.90;;;1.60;;
7324;SDS011;3703;48.016;7.802;2022-07-05T15:56:28;1.40;;;1.27;;
7324;SDS011;3703;48.016;7.802;2022-07-05T15:59:16;2.10;;;1.30;;
7324;SDS011;3703;48.016;7.802;2022-07-05T16:02:05;1.73;;;1.40;;
7324;SDS011;3703;48.016;7.802;2022-07-05T16:04:54;1.90;;;1.37;;
7324;SDS011;3703;48.016;7.802;2022-07-05T16:07:41;2.27;;;1.40;;
7324;SDS011;3703;48.016;7.802;2022-07-05T16:10:29;1.53;;;1.20;;
7324;SDS011;3703;48.016;7.802;2022-07-05T16:13:17;1.40;;;1.30;;
7324;SDS011;3703;48.016;7.802;2022-07-05T16:16:05;2.80;;;1.47;;
7324;SDS011;3703;48.016;7.802;2022-07-05T16:19:00;1.57;;;1.30;;
7324;SDS011;3703;48.016;7.802;2022-07-05T16:21:48;4.80;;;1.70;;
7324;SDS011;3703;48.016;7.802;2022-07-05T16:24:36;1.60;;;1.20;;
7324;SDS011;3703;48.016;7.802;2022-07-05T16:27:24;5.93;;;1.40;;
7324;SDS011;3703;48.016;7.802;2022-07-05T16:30:12;2.70;;;1.40;;
7324;SDS011;3703;48.016;7.802;2022-07-05T16:33:00;1.43;;;1.30;;
7324;SDS011;3703;48.016;7.802;2022-07-05T16:35:49;1.97;;;1.40;;
7324;SDS011;3703;48.016;7.802;2022-07-05T16:38:37;3.27;;;1.37;;
7324;SDS011;3703;48.016;7.802;2022-07-05T16:41:25;2.37;;;1.57;;
7324;SDS011;3703;48.016;7.802;2022-07-05T16:44:13;3.30;;;1.70;;
7324;SDS011;3703;48.016;7.802;2022-07-05T16:47:01;2.17;;;1.30;;
7324;SDS011;3703;48.016;7.802;2022-07-05T16:49:50;1.73;;;1.47;;
7324;SDS011;3703;48.016;7.802;2022-07-05T16:52:39;3.57;;;1.40;;
7324;SDS011;3703;48.016;7.802;2022-07-05T16:55:27;2.57;;;1.37;;
7324;SDS011;3703;48.016;7.802;2022-07-05T16:58:15;2.13;;;1.50;;
7324;SDS011;3703;48.016;7.802;2022-07-05T17:01:03;3.73;;;1.60;;
7324;SDS011;3703;48.016;7.802;2022-07-05T17:03:53;2.03;;;1.50;;
7324;SDS011;3703;48.016;7.802;2022-07-05T17:06:41;1.70;;;1.40;;
7324;SDS011;3703;48.016;7.802;2022-07-05T17:09:30;2.80;;;1.40;;
7324;SDS011;3703;48.016;7.802;2022-07-05T17:12:18;2.70;;;1.40;;
7324;SDS011;3703;48.016;7.802;2022-07-05T17:15:07;1.97;;;1.50;;
7324;SDS011;3703;48.016;7.802;2022-07-05T17:17:56;1.37;;;1.20;;
7324;SDS011;3703;48.016;7.802;2022-07-05T17:20:44;2.53;;;1.40;;
7324;SDS011;3703;48.016;7.802;2022-07-05T17:23:32;1.90;;;1.47;;
7324;SDS011;3703;48.016;7.802;2022-07-05T17:26:24;1.80;;;1.70;;
7324;SDS011;3703;48.016;7.802;2022-07-05T17:29:14;2.00;;;1.60;;
7324;SDS011;3703;48.016;7.802;2022-07-05T17:32:02;2.13;;;1.40;;
7324;SDS011;3703;48.016;7.802;2022-07-05T17:34:50;3.23;;;1.70;;
7324;SDS011;3703;48.016;7.802;2022-07-05T17:37:38;2.73;;;1.40;;
7324;SDS011;3703;48.016;7.802;2022-07-05T17:40:25;2.10;;;1.40;;
7324;SDS011;3703;48.016;7.802;2022-07-05T17:43:14;4.77;;;1.53;;
7324;SDS011;3703;48.016;7.802;2022-07-05T17:46:02;2.23;;;1.30;;